Time;durP1;ratioP1;P1;durP2;ratioP2;P2;SDS_P1;SDS_P2;PMS_P1;PMS_P2;Temp;Humidity;BMP_temperature;BMP_pressure;BME280_temperature;BME280_humidity;BME280_pressure;Samples;Min_cycle;Max_cycle;Signal;HPM_P1;HPM_P2
2021/11/07 00:00:22;;;;;;;1.30;0.77;;;21.30;44.80;;;;;;5016591;28;20037;-60
2021/11/07 00:02:57;;;;;;;1.45;0.60;;;21.40;44.90;;;;;;5034215;28;20132;-55
2021/11/07 00:08:25;;;;;;;1.48;0.80;;;21.30;44.90;;;;;;5021272;28;20029;-60
2021/11/07 00:11:23;;;;;;;1.00;0.60;;;21.30;45.00;;;;;;5016055;28;20037;-60
2021/11/07 00:13:40;;;;;;;0.60;0.50;;;21.30;45.00;;;;;;5015948;28;20029;-59
2021/11/07 00:16:12;;;;;;;0.75;0.47;;;21.30;45.00;;;;;;5023486;28;20367;-58
2021/11/07 00:18:42;;;;;;;0.95;0.60;;;21.30;45.00;;;;;;5032808;28;20115;-57
2021/11/07 00:21:14;;;;;;;1.00;0.55;;;21.30;45.00;;;;;;5031254;28;20029;-61
2021/11/07 00:28:48;;;;;;;0.63;0.50;;;21.30;45.10;;;;;;5028565;28;20048;-55
2021/11/07 00:31:23;;;;;;;1.25;0.68;;;21.20;45.00;;;;;;5019284;28;20025;-59
2021/11/07 00:38:56;;;;;;;0.90;0.60;;;21.20;45.20;;;;;;5021736;28;20026;-56
2021/11/07 00:46:28;;;;;;;0.55;0.45;;;21.20;45.20;;;;;;5025880;28;20107;-57
2021/11/07 00:49:04;;;;;;;0.52;0.50;;;21.20;45.30;;;;;;5019319;28;20033;-57
2021/11/07 00:51:35;;;;;;;0.57;0.50;;;21.20;45.30;;;;;;5023897;28;20064;-55
2021/11/07 00:54:14;;;;;;;0.85;0.70;;;21.20;45.30;;;;;;5028687;28;20056;-59
2021/11/07 00:56:50;;;;;;;0.60;0.50;;;21.20;45.40;;;;;;5019752;28;20368;-60
2021/11/07 01:02:12;;;;;;;0.60;0.50;;;21.20;45.50;;;;;;5020492;28;20068;-59
2021/11/07 01:04:38;;;;;;;0.63;0.40;;;21.20;45.50;;;;;;5025346;28;20033;-57
2021/11/07 01:07:04;;;;;;;0.63;0.40;;;21.10;45.50;;;;;;5026169;28;20479;-62
2021/11/07 01:09:30;;;;;;;0.93;0.60;;;21.10;45.50;;;;;;5023371;28;20116;-57
2021/11/07 01:11:56;;;;;;;0.50;0.32;;;21.10;45.50;;;;;;5015031;28;20495;-54
2021/11/07 01:14:21;;;;;;;0.50;0.50;;;21.10;45.50;;;;;;5018714;28;20176;-57
2021/11/07 01:16:47;;;;;;;1.17;0.70;;;21.10;45.60;;;;;;5025593;28;20334;-59
2021/11/07 01:19:13;;;;;;;0.40;0.40;;;21.10;45.60;;;;;;5016133;28;20026;-56
2021/11/07 01:21:42;;;;;;;0.57;0.47;;;21.10;45.60;;;;;;5016666;28;20034;-60
2021/11/07 01:24:18;;;;;;;0.63;0.35;;;21.10;45.60;;;;;;5015162;28;20042;-59
2021/11/07 01:26:48;;;;;;;0.45;0.40;;;21.10;45.70;;;;;;5019632;28;20044;-58
2021/11/07 01:29:18;;;;;;;0.50;0.45;;;21.10;45.70;;;;;;5015138;28;20337;-59
2021/11/07 01:31:45;;;;;;;1.02;0.50;;;21.10;45.70;;;;;;5030964;28;20048;-58
2021/11/07 01:34:20;;;;;;;0.57;0.47;;;21.00;45.70;;;;;;5025377;28;20052;-59
2021/11/07 01:36:51;;;;;;;0.93;0.43;;;21.00;45.70;;;;;;5015978;28;20053;-58
2021/11/07 01:42:00;;;;;;;1.13;0.60;;;21.00;45.80;;;;;;5031585;28;20116;-60
2021/11/07 01:44:45;;;;;;;0.70;0.60;;;21.00;45.90;;;;;;5015015;28;20030;-59
2021/11/07 01:47:12;;;;;;;0.93;0.50;;;21.00;45.90;;;;;;5015214;28;20293;-58
2021/11/07 01:49:41;;;;;;;0.57;0.43;;;21.00;45.90;;;;;;5020770;28;20025;-57
2021/11/07 01:52:08;;;;;;;0.45;0.40;;;21.00;46.00;;;;;;5032121;28;20129;-57
2021/11/07 01:54:48;;;;;;;0.73;0.50;;;21.00;46.00;;;;;;5018764;28;20337;-58
2021/11/07 01:57:23;;;;;;;0.40;0.40;;;21.00;46.10;;;;;;5020977;28;20033;-58
2021/11/07 01:59:55;;;;;;;1.00;0.50;;;20.90;46.10;;;;;;5021520;28;20408;-59
2021/11/07 02:02:34;;;;;;;0.63;0.57;;;20.90;46.10;;;;;;5035540;28;20044;-59
2021/11/07 02:05:01;;;;;;;0.93;0.60;;;20.90;46.10;;;;;;5025704;28;20053;-56
2021/11/07 02:07:26;;;;;;;2.08;0.77;;;20.90;46.20;;;;;;5018953;28;20065;-60
2021/11/07 02:09:52;;;;;;;0.57;0.45;;;21.00;46.30;;;;;;5028914;28;20049;-58
2021/11/07 02:12:19;;;;;;;1.08;0.57;;;20.90;46.20;;;;;;5021461;28;20034;-60
2021/11/07 02:14:45;;;;;;;0.77;0.50;;;20.90;46.20;;;;;;5022468;28;20037;-59
2021/11/07 02:17:11;;;;;;;0.80;0.50;;;20.90;46.20;;;;;;5026914;28;20022;-58
2021/11/07 02:19:41;;;;;;;0.38;0.30;;;20.90;46.20;;;;;;5030076;28;20037;-58
2021/11/07 02:22:06;;;;;;;1.33;0.60;;;21.00;46.20;;;;;;5031385;28;20113;-60
2021/11/07 02:24:34;;;;;;;0.90;0.68;;;20.90;46.20;;;;;;5024072;28;20045;-58
2021/11/07 02:27:01;;;;;;;1.17;0.50;;;20.90;46.30;;;;;;5024009;28;20057;-58
2021/11/07 02:29:29;;;;;;;0.80;0.50;;;20.90;46.40;;;;;;5030041;28;20053;-61
2021/11/07 02:31:56;;;;;;;0.77;0.55;;;20.90;46.40;;;;;;5017705;28;20029;-59
2021/11/07 02:34:29;;;;;;;1.88;0.82;;;20.90;46.50;;;;;;5017969;28;20069;-63
2021/11/07 02:36:56;;;;;;;1.75;0.65;;;20.90;46.50;;;;;;5018793;28;20026;-61
2021/11/07 02:39:22;;;;;;;0.80;0.57;;;20.90;46.50;;;;;;5027839;28;20025;-59
2021/11/07 02:41:49;;;;;;;0.85;0.70;;;20.90;46.60;;;;;;5018326;28;20353;-60
2021/11/07 02:44:37;;;;;;;1.35;0.68;;;20.90;46.60;;;;;;5017569;28;20113;-62
2021/11/07 02:47:09;;;;;;;0.60;0.55;;;20.90;46.70;;;;;;5017615;28;20445;-59
2021/11/07 02:49:36;;;;;;;0.73;0.60;;;20.90;46.70;;;;;;5019376;28;20064;-58
2021/11/07 02:52:05;;;;;;;0.90;0.60;;;20.90;46.80;;;;;;5021310;28;20506;-58
2021/11/07 02:54:32;;;;;;;1.00;0.70;;;20.80;46.80;;;;;;5021937;28;20041;-61
2021/11/07 02:56:59;;;;;;;1.13;0.77;;;20.90;46.90;;;;;;5023567;28;20033;-58
2021/11/07 02:59:29;;;;;;;0.73;0.60;;;20.80;46.80;;;;;;5035964;28;20029;-60
2021/11/07 03:01:56;;;;;;;0.70;0.60;;;20.80;46.90;;;;;;5034737;28;20037;-62
2021/11/07 03:04:23;;;;;;;1.15;0.60;;;20.80;47.00;;;;;;5030025;28;20034;-61
2021/11/07 03:06:48;;;;;;;1.63;0.70;;;20.80;47.00;;;;;;5018450;28;20330;-58
2021/11/07 03:09:18;;;;;;;1.10;0.63;;;20.80;47.00;;;;;;5023853;28;20033;-60
2021/11/07 03:11:45;;;;;;;1.30;0.73;;;20.80;47.00;;;;;;5021228;28;20080;-57
2021/11/07 03:14:16;;;;;;;1.02;0.80;;;20.80;47.10;;;;;;5035726;28;20346;-58
2021/11/07 03:16:43;;;;;;;1.20;0.70;;;20.80;47.10;;;;;;5021967;28;20030;-58
2021/11/07 03:19:10;;;;;;;1.25;0.63;;;20.80;47.20;;;;;;5019206;28;20026;-60
2021/11/07 03:21:37;;;;;;;1.00;0.70;;;20.80;47.20;;;;;;5033268;28;20044;-61
2021/11/07 03:24:03;;;;;;;1.15;0.68;;;20.80;47.20;;;;;;5020336;28;20026;-61
2021/11/07 03:26:30;;;;;;;1.08;0.90;;;20.80;47.30;;;;;;5036306;28;20037;-60
2021/11/07 03:29:00;;;;;;;1.75;1.00;;;20.80;47.40;;;;;;5033966;28;20060;-61
2021/11/07 03:31:40;;;;;;;1.15;0.77;;;20.80;47.40;;;;;;5035429;28;20106;-59
2021/11/07 03:34:12;;;;;;;0.77;0.68;;;20.80;47.40;;;;;;5034030;28;20490;-61
2021/11/07 03:36:50;;;;;;;1.10;0.80;;;20.80;47.50;;;;;;5017291;28;20439;-56
2021/11/07 03:39:17;;;;;;;1.25;0.88;;;20.70;47.50;;;;;;5029562;28;20053;-60
2021/11/07 03:41:44;;;;;;;1.63;0.88;;;20.70;47.50;;;;;;5017035;28;20056;-53
2021/11/07 03:44:10;;;;;;;1.58;0.88;;;20.70;47.60;;;;;;5020158;28;20037;-60
2021/11/07 03:46:37;;;;;;;2.25;1.00;;;20.70;47.60;;;;;;5030813;28;20030;-59
2021/11/07 03:49:04;;;;;;;2.03;1.08;;;20.80;47.70;;;;;;5019864;28;20124;-58
2021/11/07 03:51:31;;;;;;;1.85;1.00;;;20.70;47.70;;;;;;5031320;28;20041;-61
2021/11/07 03:53:58;;;;;;;1.77;1.00;;;20.70;47.70;;;;;;5028604;28;20065;-61
2021/11/07 03:56:25;;;;;;;1.63;0.70;;;20.70;47.70;;;;;;5036026;28;20037;-60
2021/11/07 03:58:51;;;;;;;1.35;1.00;;;20.70;47.80;;;;;;5028842;28;20033;-58
2021/11/07 04:01:18;;;;;;;1.30;0.90;;;20.70;47.90;;;;;;5015770;28;20052;-62
2021/11/07 04:03:44;;;;;;;1.42;0.90;;;20.70;47.90;;;;;;5023400;28;20364;-60
2021/11/07 04:06:12;;;;;;;1.45;0.98;;;20.70;48.50;;;;;;5025833;28;20026;-58
2021/11/07 04:08:40;;;;;;;1.75;0.95;;;20.70;48.00;;;;;;5027698;28;20034;-60
2021/11/07 04:11:06;;;;;;;2.72;1.13;;;20.70;48.00;;;;;;5031887;28;20053;-62
2021/11/07 04:13:32;;;;;;;2.00;0.90;;;20.70;48.00;;;;;;5033574;28;20037;-59
2021/11/07 04:15:58;;;;;;;1.20;0.85;;;20.70;48.00;;;;;;5024102;28;20484;-60
2021/11/07 04:18:24;;;;;;;1.13;0.70;;;20.70;48.00;;;;;;5021181;28;20026;-59
2021/11/07 04:20:50;;;;;;;2.10;1.08;;;20.70;48.00;;;;;;5047307;28;20064;-58
2021/11/07 04:23:15;;;;;;;1.00;0.68;;;20.70;48.00;;;;;;5030630;28;20022;-59
2021/11/07 04:25:41;;;;;;;1.63;0.82;;;20.70;47.90;;;;;;5016118;28;20464;-57
2021/11/07 04:28:07;;;;;;;2.28;0.98;;;20.70;47.90;;;;;;5022437;28;20029;-62
2021/11/07 04:30:34;;;;;;;1.83;0.90;;;20.70;47.90;;;;;;5023965;28;20472;-55
2021/11/07 04:33:00;;;;;;;2.30;0.90;;;20.70;47.90;;;;;;5015538;28;20357;-59
2021/11/07 04:35:28;;;;;;;2.38;1.08;;;20.70;47.90;;;;;;5030209;28;20364;-58
2021/11/07 04:37:55;;;;;;;2.33;1.00;;;20.60;47.80;;;;;;5027154;28;20057;-59
2021/11/07 04:40:21;;;;;;;2.42;0.93;;;20.60;47.80;;;;;;5016387;28;20038;-59
2021/11/07 04:42:47;;;;;;;2.38;0.90;;;20.70;47.80;;;;;;5020204;28;20116;-60
2021/11/07 04:45:13;;;;;;;2.40;1.10;;;20.70;47.80;;;;;;5024176;28;20037;-58
2021/11/07 04:47:39;;;;;;;2.45;1.20;;;20.60;47.70;;;;;;5028790;28;20033;-61
2021/11/07 04:50:07;;;;;;;1.88;1.10;;;20.60;47.70;;;;;;5020400;28;20103;-61
2021/11/07 04:52:33;;;;;;;2.53;1.13;;;20.60;47.70;;;;;;5016738;28;20430;-58
2021/11/07 04:54:59;;;;;;;1.63;0.90;;;20.60;47.70;;;;;;5015881;28;20124;-59
2021/11/07 04:57:25;;;;;;;2.10;0.80;;;20.60;47.70;;;;;;5022055;28;20029;-57
2021/11/07 04:59:51;;;;;;;2.30;1.08;;;20.60;47.60;;;;;;5028069;28;20061;-56
2021/11/07 05:02:17;;;;;;;1.90;0.82;;;20.60;47.60;;;;;;5020499;28;20344;-58
2021/11/07 05:04:43;;;;;;;2.90;1.10;;;20.60;47.60;;;;;;5034510;28;20091;-57
2021/11/07 05:07:09;;;;;;;2.88;1.00;;;20.60;47.60;;;;;;5017520;28;20038;-61
2021/11/07 05:09:35;;;;;;;2.17;1.05;;;20.60;47.60;;;;;;5021876;28;20091;-59
2021/11/07 05:12:01;;;;;;;3.08;1.10;;;20.60;47.60;;;;;;5015467;28;20076;-58
2021/11/07 05:14:27;;;;;;;4.20;1.52;;;20.60;47.50;;;;;;5016423;28;20030;-59
2021/11/07 05:16:53;;;;;;;2.35;1.00;;;20.60;47.60;;;;;;5021165;28;20026;-61
2021/11/07 05:19:19;;;;;;;2.08;0.90;;;20.60;47.50;;;;;;5025607;28;20048;-58
2021/11/07 05:21:45;;;;;;;2.40;1.17;;;20.60;47.50;;;;;;5016538;28;20116;-61
2021/11/07 05:24:11;;;;;;;2.22;0.85;;;20.60;47.50;;;;;;5030213;28;20042;-57
2021/11/07 05:26:36;;;;;;;2.97;1.10;;;20.60;47.50;;;;;;5034921;28;20018;-59
2021/11/07 05:29:05;;;;;;;2.83;1.00;;;20.60;47.50;;;;;;5037900;28;20057;-61
2021/11/07 05:31:32;;;;;;;2.45;1.08;;;20.60;47.50;;;;;;5035621;28;20112;-58
2021/11/07 05:33:58;;;;;;;3.83;1.40;;;20.50;47.40;;;;;;5035665;28;20037;-58
2021/11/07 05:36:24;;;;;;;3.85;1.50;;;20.50;47.40;;;;;;5029296;28;20040;-60
2021/11/07 05:38:49;;;;;;;2.72;1.40;;;20.50;47.30;;;;;;5038172;28;20044;-59
2021/11/07 05:41:15;;;;;;;2.00;1.10;;;20.50;47.30;;;;;;5019088;28;20065;-60
2021/11/07 05:43:41;;;;;;;2.45;1.08;;;20.50;47.30;;;;;;5025443;28;20040;-60
2021/11/07 05:46:07;;;;;;;2.65;1.05;;;20.50;47.30;;;;;;5029525;28;20029;-55
2021/11/07 05:48:38;;;;;;;3.58;1.25;;;20.50;47.20;;;;;;5025932;28;20030;-58
2021/11/07 05:51:04;;;;;;;3.20;1.17;;;20.50;47.20;;;;;;5036852;28;20041;-60
2021/11/07 05:53:30;;;;;;;2.42;1.10;;;20.50;47.20;;;;;;5032614;28;20042;-59
2021/11/07 05:55:56;;;;;;;3.03;1.33;;;20.50;47.20;;;;;;5018388;28;20368;-61
2021/11/07 05:58:22;;;;;;;2.65;1.00;;;20.50;47.10;;;;;;5017630;28;20030;-61
2021/11/07 06:00:48;;;;;;;3.17;1.02;;;20.50;47.00;;;;;;5033285;28;20021;-61
2021/11/07 06:03:15;;;;;;;1.95;1.00;;;20.50;47.00;;;;;;5030275;28;20033;-54
2021/11/07 06:05:41;;;;;;;3.78;1.52;;;20.50;46.90;;;;;;5031498;28;20472;-61
2021/11/07 06:08:07;;;;;;;3.08;1.25;;;20.50;46.90;;;;;;5024746;28;20021;-61
2021/11/07 06:10:33;;;;;;;1.70;0.93;;;20.40;46.80;;;;;;5031195;28;20029;-60
2021/11/07 06:12:58;;;;;;;3.05;1.02;;;20.50;46.90;;;;;;5024115;28;20041;-60
2021/11/07 06:15:24;;;;;;;2.85;0.90;;;20.40;46.80;;;;;;5031437;28;20448;-55
2021/11/07 06:17:50;;;;;;;3.20;1.13;;;20.40;46.80;;;;;;5018008;28;20029;-58
2021/11/07 06:20:16;;;;;;;2.63;1.00;;;20.40;46.70;;;;;;5033320;28;20355;-60
2021/11/07 06:22:41;;;;;;;3.67;1.17;;;20.40;46.70;;;;;;5025045;28;20030;-60
2021/11/07 06:25:07;;;;;;;3.20;1.23;;;20.40;46.60;;;;;;5018589;28;20131;-58
2021/11/07 06:27:35;;;;;;;2.22;0.98;;;20.40;46.60;;;;;;5036479;28;20376;-58
2021/11/07 06:30:02;;;;;;;1.70;0.85;;;20.40;46.50;;;;;;5025221;28;20105;-60
2021/11/07 06:32:28;;;;;;;4.00;1.35;;;20.40;46.50;;;;;;5021266;28;20453;-60
2021/11/07 06:34:54;;;;;;;3.13;1.30;;;20.40;46.50;;;;;;5037468;28;20099;-58
2021/11/07 06:37:20;;;;;;;3.20;1.05;;;20.40;46.40;;;;;;5034871;28;20029;-56
2021/11/07 06:39:46;;;;;;;2.78;1.17;;;20.40;46.40;;;;;;5028965;28;20034;-59
2021/11/07 06:42:12;;;;;;;2.50;1.10;;;20.40;46.30;;;;;;5035950;28;20071;-59
2021/11/07 06:44:38;;;;;;;2.22;0.98;;;20.40;46.30;;;;;;5026779;28;20364;-58
2021/11/07 06:47:07;;;;;;;3.28;1.20;;;20.40;46.30;;;;;;5023451;28;20032;-63
2021/11/07 06:49:33;;;;;;;2.40;1.20;;;20.30;46.20;;;;;;5016581;28;20475;-56
2021/11/07 06:51:59;;;;;;;3.58;1.15;;;20.40;46.20;;;;;;5026834;28;20033;-56
2021/11/07 06:54:26;;;;;;;2.70;1.17;;;20.30;46.10;;;;;;5029510;28;20081;-61
2021/11/07 06:56:52;;;;;;;3.20;0.98;;;20.40;46.00;;;;;;5016594;28;20460;-59
2021/11/07 06:59:18;;;;;;;2.72;1.15;;;20.40;45.90;;;;;;5020124;28;20033;-58
2021/11/07 07:01:44;;;;;;;2.25;0.80;;;20.40;45.90;;;;;;5031496;28;20105;-59
2021/11/07 07:04:10;;;;;;;3.22;1.30;;;20.40;45.90;;;;;;5032379;28;20029;-58
2021/11/07 07:06:36;;;;;;;4.47;1.30;;;20.30;45.90;;;;;;5030337;28;20088;-61
2021/11/07 07:09:09;;;;;;;2.58;0.95;;;20.40;45.90;;;;;;5022097;28;20065;-59
2021/11/07 07:11:42;;;;;;;2.40;0.95;;;20.40;45.90;;;;;;5016182;28;20100;-58
2021/11/07 07:14:14;;;;;;;4.22;1.48;;;20.30;45.90;;;;;;5017264;28;20045;-60
2021/11/07 07:19:38;;;;;;;3.50;1.08;;;20.30;45.80;;;;;;5034419;28;20364;-58
2021/11/07 07:27:22;;;;;;;4.43;1.60;;;20.30;45.70;;;;;;5017928;28;20034;-60
2021/11/07 07:35:10;;;;;;;2.38;1.00;;;20.30;45.60;;;;;;5018927;28;20078;-60
2021/11/07 07:37:35;;;;;;;2.00;0.80;;;20.30;45.60;;;;;;5028589;28;20033;-54
2021/11/07 07:40:02;;;;;;;3.25;1.25;;;20.30;45.50;;;;;;5030644;28;20361;-59
2021/11/07 07:42:30;;;;;;;4.05;1.17;;;20.20;45.40;;;;;;5035550;28;20033;-58
2021/11/07 07:44:56;;;;;;;1.73;0.88;;;20.20;45.40;;;;;;5036486;28;20079;-59
2021/11/07 07:47:21;;;;;;;4.03;1.20;;;20.30;45.50;;;;;;5026971;28;20064;-60
2021/11/07 07:49:49;;;;;;;2.50;1.00;;;20.30;45.40;;;;;;5019268;28;20033;-59
2021/11/07 07:52:20;;;;;;;2.85;1.05;;;20.20;45.30;;;;;;5025883;28;20043;-56
2021/11/07 07:54:46;;;;;;;2.95;1.27;;;20.20;45.30;;;;;;5020858;28;20104;-58
2021/11/07 07:57:12;;;;;;;5.88;1.20;;;20.20;45.30;;;;;;5026818;28;20439;-57
2021/11/07 07:59:37;;;;;;;3.00;1.10;;;20.20;45.40;;;;;;5020356;28;20049;-53
2021/11/07 08:02:03;;;;;;;2.63;1.17;;;20.20;45.30;;;;;;5030154;28;20064;-59
2021/11/07 08:04:29;;;;;;;3.42;1.08;;;20.20;45.30;;;;;;5028473;28;20061;-56
2021/11/07 08:06:55;;;;;;;3.45;1.30;;;20.20;45.40;;;;;;5019700;28;20462;-60
2021/11/07 08:09:21;;;;;;;2.28;1.00;;;20.20;45.40;;;;;;5023159;28;20025;-61
2021/11/07 08:11:47;;;;;;;3.28;1.23;;;20.20;45.40;;;;;;5016878;28;20033;-55
2021/11/07 08:14:12;;;;;;;3.60;1.27;;;20.20;45.40;;;;;;5015816;28;20107;-55
2021/11/07 08:16:39;;;;;;;2.70;1.00;;;20.20;45.30;;;;;;5022767;28;20026;-59
2021/11/07 08:19:06;;;;;;;3.58;1.20;;;20.30;45.40;;;;;;5021469;28;20036;-58
2021/11/07 08:21:37;;;;;;;3.58;1.63;;;20.30;45.20;;;;;;5024922;28;20076;-59
2021/11/07 08:24:05;;;;;;;3.42;1.58;;;20.40;45.20;;;;;;5028725;28;20029;-56
2021/11/07 08:26:32;;;;;;;2.83;1.10;;;20.60;45.10;;;;;;5019182;28;20179;-57
2021/11/07 08:28:59;;;;;;;5.35;1.27;;;20.70;45.00;;;;;;5020219;28;20025;-57
2021/11/07 08:31:27;;;;;;;2.83;1.15;;;20.90;44.80;;;;;;5015578;28;20025;-60
2021/11/07 08:33:53;;;;;;;3.38;1.23;;;21.00;44.60;;;;;;5026119;28;20052;-57
2021/11/07 08:36:26;;;;;;;2.40;1.27;;;21.10;44.40;;;;;;5034360;28;20123;-56
2021/11/07 08:38:58;;;;;;;3.30;1.23;;;21.20;44.20;;;;;;5034310;28;20493;-56
2021/11/07 08:41:25;;;;;;;3.20;1.20;;;21.40;44.00;;;;;;5034669;28;20337;-57
2021/11/07 09:00:20;;;;;;;3.50;1.23;;;22.00;42.90;;;;;;5014982;28;20062;-55
2021/11/07 09:05:18;;;;;;;2.60;1.13;;;22.20;42.80;;;;;;5031588;28;20056;-57
2021/11/07 09:10:32;;;;;;;2.92;1.10;;;22.30;42.60;;;;;;5033602;28;20100;-57
2021/11/07 09:13:01;;;;;;;2.85;1.13;;;22.40;42.40;;;;;;5026414;28;20325;-56
2021/11/07 09:15:29;;;;;;;3.95;1.40;;;22.50;42.40;;;;;;5026293;28;20045;-57
2021/11/07 09:17:57;;;;;;;2.22;1.05;;;22.60;42.30;;;;;;5018893;28;20025;-61
2021/11/07 09:23:52;;;;;;;2.53;1.13;;;22.70;42.00;;;;;;5015060;28;20026;-56
2021/11/07 09:28:29;;;;;;;5.47;1.35;;;22.80;41.90;;;;;;5019193;28;20501;-62
2021/11/07 09:31:04;;;;;;;5.53;1.35;;;22.90;41.90;;;;;;5036736;28;20101;-51
2021/11/07 09:36:27;;;;;;;4.45;1.35;;;23.00;42.00;;;;;;5001585;28;20084;-55
2021/11/07 09:39:05;;;;;;;6.93;0.90;;;23.00;42.00;;;;;;5025036;28;20103;-55
2021/11/07 09:41:49;;;;;;;2.00;0.60;;;23.00;41.80;;;;;;5013580;28;20101;-55
2021/11/07 09:44:18;;;;;;;1.33;0.47;;;23.00;41.90;;;;;;5025066;28;20037;-57
2021/11/07 09:49:21;;;;;;;2.10;0.52;;;22.80;42.00;;;;;;5023254;28;20025;-52
2021/11/07 09:51:58;;;;;;;0.82;0.60;;;22.70;42.10;;;;;;5021401;28;21311;-58
2021/11/07 09:54:25;;;;;;;2.10;0.63;;;22.70;42.30;;;;;;5014384;28;20049;-60
2021/11/07 09:56:54;;;;;;;2.13;0.68;;;22.60;42.40;;;;;;5018518;28;20083;-49
2021/11/07 09:59:20;;;;;;;2.92;1.02;;;22.50;42.50;;;;;;5031463;28;20512;-48
2021/11/07 10:01:50;;;;;;;3.67;1.00;;;22.40;42.50;;;;;;5015668;28;20119;-58
2021/11/07 10:04:21;;;;;;;3.58;1.20;;;22.40;42.60;;;;;;5033330;28;20029;-61
2021/11/07 10:06:53;;;;;;;3.53;1.30;;;22.40;42.70;;;;;;5028802;28;20046;-52
2021/11/07 10:09:37;;;;;;;2.95;1.33;;;22.50;42.90;;;;;;5030244;28;20458;-57
2021/11/07 10:12:18;;;;;;;4.07;1.27;;;22.50;42.90;;;;;;5025800;28;20033;-56
2021/11/07 10:14:48;;;;;;;3.72;1.15;;;22.50;42.90;;;;;;5017527;28;20445;-56
2021/11/07 10:17:37;;;;;;;4.32;1.25;;;22.50;42.90;;;;;;5017940;28;20033;-52
2021/11/07 10:20:16;;;;;;;3.42;1.20;;;22.50;42.80;;;;;;5019027;28;20033;-56
2021/11/07 10:22:43;;;;;;;3.65;1.27;;;22.50;42.90;;;;;;5019869;28;20034;-51
2021/11/07 10:25:18;;;;;;;3.47;1.27;;;22.50;42.90;;;;;;5024860;28;20065;-62
2021/11/07 10:27:47;;;;;;;;;;;22.50;42.90;;;;;;5025600;28;20364;-57
2021/11/07 10:30:28;;;;;;;2.38;0.80;;;22.50;42.90;;;;;;5019741;28;19913;-52
2021/11/07 10:33:06;;;;;;;4.15;1.00;;;22.50;42.90;;;;;;5023692;28;20091;-50
2021/11/07 10:38:45;;;;;;;3.95;1.17;;;22.60;42.90;;;;;;5028695;28;20035;-45
2021/11/07 10:42:05;;;;;;;2.25;1.00;;;22.60;42.90;;;;;;5030791;28;20036;-51
2021/11/07 10:45:06;;;;;;;3.40;1.20;;;22.60;42.90;;;;;;5023920;28;20421;-55
2021/11/07 10:48:00;;;;;;;3.00;1.13;;;22.60;43.00;;;;;;5021507;28;20453;-48
2021/11/07 10:53:15;;;;;;;;;;;22.60;42.90;;;;;;5022897;28;20155;-46
2021/11/07 10:55:47;;;;;;;2.80;0.85;;;22.50;42.80;;;;;;5029102;28;19916;-45
2021/11/07 10:58:13;;;;;;;3.10;1.23;;;22.60;42.80;;;;;;5025158;28;20091;-48
2021/11/07 11:00:46;;;;;;;5.82;1.00;;;22.50;42.70;;;;;;5026872;28;20037;-45
2021/11/07 11:03:16;;;;;;;6.20;1.17;;;22.50;42.70;;;;;;5021294;28;20120;-45
2021/11/07 11:05:50;;;;;;;3.47;0.95;;;22.60;42.80;;;;;;5025826;28;20022;-45
2021/11/07 11:08:43;;;;;;;3.67;1.20;;;22.70;42.70;;;;;;5020330;28;20045;-51
2021/11/07 11:22:09;;;;;;;2.55;1.02;;;22.70;42.30;;;;;;5024559;28;20680;-46
2021/11/07 11:37:50;;;;;;;3.83;1.25;;;22.60;42.10;;;;;;5023886;28;20045;-50
2021/11/07 11:40:28;;;;;;;5.18;1.38;;;22.60;42.00;;;;;;5020257;28;20029;-47
2021/11/07 11:45:26;;;;;;;3.58;1.35;;;22.60;42.00;;;;;;5024632;28;20029;-46
2021/11/07 11:48:41;;;;;;;5.72;1.20;;;22.60;41.90;;;;;;5021335;28;20033;-49
2021/11/07 11:51:30;;;;;;;3.67;1.17;;;22.60;41.80;;;;;;5031019;28;20025;-48
2021/11/07 11:57:11;;;;;;;4.10;1.15;;;22.60;41.70;;;;;;5024305;28;20029;-44
2021/11/07 11:59:47;;;;;;;4.32;1.30;;;22.60;41.60;;;;;;5020404;28;20033;-49
2021/11/07 12:08:08;;;;;;;3.45;1.08;;;22.50;41.40;;;;;;5018316;28;20030;-45
2021/11/07 12:10:46;;;;;;;2.47;1.20;;;22.50;41.20;;;;;;5023378;28;20044;-46
2021/11/07 12:13:59;;;;;;;2.38;1.05;;;22.50;41.30;;;;;;5024217;28;20025;-47
2021/11/07 12:16:47;;;;;;;3.33;1.02;;;22.50;41.20;;;;;;5027986;28;20038;-44
2021/11/07 12:19:15;;;;;;;3.47;0.90;;;22.50;41.10;;;;;;5030810;28;20037;-45
2021/11/07 12:21:57;;;;;;;1.92;0.82;;;22.40;41.20;;;;;;5035006;28;20025;-45
2021/11/07 12:24:36;;;;;;;2.63;1.15;;;22.50;41.10;;;;;;5018278;28;20546;-43
2021/11/07 12:27:22;;;;;;;3.63;1.05;;;22.50;41.10;;;;;;5026705;28;20040;-46
2021/11/07 12:30:03;;;;;;;1.98;0.77;;;22.50;41.00;;;;;;5013770;28;20449;-54
2021/11/07 12:32:37;;;;;;;2.55;1.00;;;22.50;41.00;;;;;;5015489;28;20045;-47
2021/11/07 12:35:23;;;;;;;3.30;1.35;;;22.40;41.00;;;;;;5013999;28;20030;-46
2021/11/07 12:40:40;;;;;;;3.13;0.90;;;22.40;41.00;;;;;;5027191;28;20104;-43
2021/11/07 12:43:25;;;;;;;2.58;1.05;;;22.40;41.00;;;;;;5023709;28;20121;-49
2021/11/07 12:45:57;;;;;;;2.17;0.82;;;22.40;40.90;;;;;;5020992;28;20040;-43
2021/11/07 12:48:47;;;;;;;2.75;1.10;;;22.50;41.10;;;;;;5024523;28;20727;-47
2021/11/07 12:51:20;;;;;;;3.50;1.15;;;22.50;40.90;;;;;;5015209;28;20388;-46
2021/11/07 12:54:05;;;;;;;3.28;1.17;;;22.40;40.90;;;;;;5017347;28;20691;-47
2021/11/07 12:56:39;;;;;;;2.72;1.08;;;22.50;40.90;;;;;;5022397;28;20100;-47
2021/11/07 12:59:08;;;;;;;4.18;1.23;;;22.50;41.00;;;;;;5025921;28;20479;-46
2021/11/07 13:02:04;;;;;;;2.78;0.80;;;22.50;41.10;;;;;;5015750;28;20033;-45
2021/11/07 13:04:40;;;;;;;3.75;1.15;;;22.40;40.90;;;;;;5021101;28;20144;-46
2021/11/07 13:07:06;;;;;;;2.42;0.88;;;22.40;41.00;;;;;;5019235;28;20117;-45
2021/11/07 13:09:36;;;;;;;2.70;1.30;;;22.40;41.10;;;;;;5015240;28;20105;-44
2021/11/07 13:12:16;;;;;;;2.80;1.02;;;22.40;41.10;;;;;;5023162;28;20167;-43
2021/11/07 13:17:53;;;;;;;1.58;0.65;;;22.40;41.10;;;;;;5015322;28;20030;-45
2021/11/07 13:21:10;;;;;;;3.08;0.85;;;22.40;41.10;;;;;;5013534;28;20038;-44
2021/11/07 13:31:14;;;;;;;2.30;0.90;;;22.50;41.10;;;;;;5017659;28;20025;-45
2021/11/07 13:33:42;;;;;;;2.53;0.95;;;22.50;41.10;;;;;;5023460;28;20025;-45
2021/11/07 13:36:10;;;;;;;2.80;1.20;;;22.50;41.20;;;;;;5016674;28;20124;-43
2021/11/07 13:38:49;;;;;;;3.88;1.33;;;22.50;41.20;;;;;;5024516;28;20021;-50
2021/11/07 13:41:21;;;;;;;3.28;1.58;;;22.50;41.80;;;;;;5021163;28;20025;-45
2021/11/07 13:43:56;;;;;;;3.50;1.15;;;22.50;41.20;;;;;;5018462;28;20026;-49
2021/11/07 13:46:22;;;;;;;1.90;0.90;;;22.50;41.30;;;;;;5016403;28;20464;-46
2021/11/07 13:49:04;;;;;;;2.78;1.20;;;22.50;41.30;;;;;;5019264;28;20037;-46
2021/11/07 13:51:33;;;;;;;2.28;0.90;;;22.50;41.30;;;;;;5021875;28;20400;-46
2021/11/07 13:54:03;;;;;;;3.78;1.02;;;22.50;41.30;;;;;;5025642;28;20457;-46
2021/11/07 13:56:31;;;;;;;2.85;0.90;;;22.50;41.30;;;;;;5019616;28;20511;-46
2021/11/07 13:58:57;;;;;;;2.17;0.95;;;22.50;41.30;;;;;;5026150;28;20091;-47
2021/11/07 14:01:22;;;;;;;1.88;0.75;;;22.50;41.20;;;;;;5029132;28;20379;-47
2021/11/07 14:03:56;;;;;;;3.83;1.00;;;22.60;41.30;;;;;;5022345;28;20040;-45
2021/11/07 14:06:38;;;;;;;2.60;1.00;;;22.50;41.20;;;;;;5023912;28;20037;-47
2021/11/07 14:09:05;;;;;;;2.50;0.80;;;22.50;41.20;;;;;;5023823;28;20048;-49
2021/11/07 14:11:35;;;;;;;2.88;0.95;;;22.50;41.20;;;;;;5026178;28;20707;-49
2021/11/07 14:14:06;;;;;;;2.47;0.98;;;22.50;41.10;;;;;;5023230;28;20072;-50
2021/11/07 14:16:44;;;;;;;3.00;1.00;;;22.50;41.10;;;;;;5027280;28;20045;-49
2021/11/07 14:19:11;;;;;;;1.80;0.80;;;22.50;41.00;;;;;;5020316;28;20413;-48
2021/11/07 14:21:41;;;;;;;1.77;1.00;;;22.50;40.90;;;;;;5026666;28;20029;-51
2021/11/07 14:29:12;;;;;;;2.55;0.93;;;22.50;40.70;;;;;;5024972;28;20029;-45
2021/11/07 14:32:07;;;;;;;2.60;0.98;;;22.50;40.70;;;;;;5029922;28;20400;-46
2021/11/07 14:34:41;;;;;;;1.70;0.77;;;22.50;40.60;;;;;;5026206;28;20057;-51
2021/11/07 14:53:37;;;;;;;2.83;0.90;;;22.40;40.50;;;;;;5020570;28;20415;-47
2021/11/07 14:58:57;;;;;;;1.98;0.77;;;22.40;40.50;;;;;;5028070;28;20116;-46
2021/11/07 15:01:42;;;;;;;4.03;1.20;;;22.50;40.50;;;;;;5018571;28;20030;-45
2021/11/07 15:04:18;;;;;;;;;;;22.40;40.60;;;;;;5030699;28;20025;-48
2021/11/07 15:06:57;;;;;;;1.85;0.77;;;22.40;40.60;;;;;;5029416;28;19909;-47
2021/11/07 15:09:27;;;;;;;1.95;0.95;;;22.40;40.60;;;;;;5028634;28;20041;-45
2021/11/07 15:12:49;;;;;;;4.45;1.25;;;22.40;40.60;;;;;;5020998;28;20088;-47
2021/11/07 15:17:47;;;;;;;3.15;1.08;;;22.30;40.60;;;;;;5023787;28;20040;-50
2021/11/07 15:20:33;;;;;;;3.20;1.08;;;22.30;40.60;;;;;;5025624;28;20328;-47
2021/11/07 15:22:59;;;;;;;1.20;0.80;;;22.40;40.60;;;;;;5023229;28;20029;-46
2021/11/07 15:25:31;;;;;;;3.53;1.23;;;22.40;40.70;;;;;;5019107;28;20045;-46
2021/11/07 15:28:13;;;;;;;2.70;0.90;;;22.40;40.60;;;;;;5020753;28;20428;-45
2021/11/07 15:30:41;;;;;;;2.42;0.90;;;22.40;40.60;;;;;;5019452;28;20049;-47
2021/11/07 15:33:16;;;;;;;2.35;1.05;;;22.40;40.60;;;;;;5017028;28;20092;-45
2021/11/07 15:35:47;;;;;;;2.28;0.93;;;22.40;40.50;;;;;;5025973;28;20540;-44
2021/11/07 15:38:17;;;;;;;2.03;1.25;;;22.40;40.50;;;;;;5019439;28;20045;-44